sensor_id;sensor_type;location;lat;lon;timestamp;temperature;humidity
19220;DHT22;9744;49.364;7.484;2022-12-01T00:00:58;6.20;99.90
19220;DHT22;9744;49.364;7.484;2022-12-01T00:03:25;6.10;99.90
19220;DHT22;9744;49.364;7.484;2022-12-01T00:05:58;6.00;99.90
19220;DHT22;9744;49.364;7.484;2022-12-01T00:08:26;5.90;99.90
19220;DHT22;9744;49.364;7.484;2022-12-01T00:11:01;5.80;99.90
19220;DHT22;9744;49.364;7.484;2022-12-01T00:13:29;5.90;99.90
19220;DHT22;9744;49.364;7.484;2022-12-01T00:15:56;5.90;99.90
19220;DHT22;9744;49.364;7.484;2022-12-01T00:18:23;5.90;99.90
19220;DHT22;9744;49.364;7.484;2022-12-01T00:20:50;5.80;99.90
19220;DHT22;9744;49.364;7.484;2022-12-01T00:23:21;5.70;99.90
19220;DHT22;9744;49.364;7.484;2022-12-01T00:25:48;5.70;99.90
19220;DHT22;9744;49.364;7.484;2022-12-01T00:28:15;5.70;99.90
19220;DHT22;9744;49.364;7.484;2022-12-01T00:30:44;5.70;99.90
19220;DHT22;9744;49.364;7.484;2022-12-01T00:33:11;5.70;99.90
19220;DHT22;9744;49.364;7.484;2022-12-01T00:35:38;5.70;99.90
19220;DHT22;9744;49.364;7.484;2022-12-01T00:38:05;5.80;99.90
19220;DHT22;9744;49.364;7.484;2022-12-01T00:40:33;5.80;99.90
19220;DHT22;9744;49.364;7.484;2022-12-01T00:43:00;5.70;99.90
19220;DHT22;9744;49.364;7.484;2022-12-01T00:45:27;5.80;99.90
19220;DHT22;9744;49.364;7.484;2022-12-01T00:47:55;5.70;99.90
19220;DHT22;9744;49.364;7.484;2022-12-01T00:50:22;5.80;99.90
19220;DHT22;9744;49.364;7.484;2022-12-01T00:52:50;5.70;99.90
19220;DHT22;9744;49.364;7.484;2022-12-01T00:55:17;5.70;99.90
19220;DHT22;9744;49.364;7.484;2022-12-01T00:57:44;5.70;99.90
19220;DHT22;9744;49.364;7.484;2022-12-01T01:00:12;5.70;99.90
19220;DHT22;9744;49.364;7.484;2022-12-01T01:02:40;5.70;99.90
19220;DHT22;9744;49.364;7.484;2022-12-01T01:05:09;5.70;99.90
19220;DHT22;9744;49.364;7.484;2022-12-01T01:07:36;5.70;99.90
19220;DHT22;9744;49.364;7.484;2022-12-01T01:10:03;5.80;99.90
19220;DHT22;9744;49.364;7.484;2022-12-01T01:12:31;5.80;99.90
19220;DHT22;9744;49.364;7.484;2022-12-01T01:14:58;5.80;99.90
19220;DHT22;9744;49.364;7.484;2022-12-01T01:17:25;5.80;99.90
19220;DHT22;9744;49.364;7.484;2022-12-01T01:19:52;5.80;99.90
19220;DHT22;9744;49.364;7.484;2022-12-01T01:22:21;5.70;99.90
19220;DHT22;9744;49.364;7.484;2022-12-01T01:24:48;5.80;99.90
19220;DHT22;9744;49.364;7.484;2022-12-01T01:27:15;5.70;99.90
19220;DHT22;9744;49.364;7.484;2022-12-01T01:29:42;5.70;99.90
19220;DHT22;9744;49.364;7.484;2022-12-01T01:32:10;5.70;99.90
19220;DHT22;9744;49.364;7.484;2022-12-01T01:34:37;5.70;99.90
19220;DHT22;9744;49.364;7.484;2022-12-01T01:37:04;5.80;99.90
19220;DHT22;9744;49.364;7.484;2022-12-01T01:39:33;5.80;99.90
19220;DHT22;9744;49.364;7.484;2022-12-01T01:42:01;5.90;99.90
19220;DHT22;9744;49.364;7.484;2022-12-01T01:44:49;6.00;99.90
19220;DHT22;9744;49.364;7.484;2022-12-01T01:47:20;6.00;99.90
19220;DHT22;9744;49.364;7.484;2022-12-01T01:49:49;6.00;99.90
19220;DHT22;9744;49.364;7.484;2022-12-01T01:52:17;6.00;99.90
19220;DHT22;9744;49.364;7.484;2022-12-01T01:54:48;6.10;99.90
19220;DHT22;9744;49.364;7.484;2022-12-01T01:57:19;6.00;99.90
19220;DHT22;9744;49.364;7.484;2022-12-01T01:59:54;6.00;99.90
19220;DHT22;9744;49.364;7.484;2022-12-01T02:02:23;6.00;99.90
19220;DHT22;9744;49.364;7.484;2022-12-01T02:04:58;6.10;99.90
19220;DHT22;9744;49.364;7.484;2022-12-01T02:07:26;6.00;99.90
19220;DHT22;9744;49.364;7.484;2022-12-01T02:09:55;6.00;99.90
19220;DHT22;9744;49.364;7.484;2022-12-01T02:15:29;6.00;99.90
19220;DHT22;9744;49.364;7.484;2022-12-01T02:18:08;6.00;99.90
19220;DHT22;9744;49.364;7.484;2022-12-01T02:24:17;6.00;99.90
19220;DHT22;9744;49.364;7.484;2022-12-01T02:26:50;5.90;99.90
19220;DHT22;9744;49.364;7.484;2022-12-01T02:29:42;6.00;99.90
19220;DHT22;9744;49.364;7.484;2022-12-01T02:32:21;6.00;99.90
19220;DHT22;9744;49.364;7.484;2022-12-01T02:34:57;6.00;99.90
19220;DHT22;9744;49.364;7.484;2022-12-01T02:37:32;6.00;99.90
19220;DHT22;9744;49.364;7.484;2022-12-01T02:40:06;6.00;99.90
19220;DHT22;9744;49.364;7.484;2022-12-01T02:42:43;6.00;99.90
19220;DHT22;9744;49.364;7.484;2022-12-01T02:45:34;6.00;99.90
19220;DHT22;9744;49.364;7.484;2022-12-01T02:48:07;6.00;99.90
19220;DHT22;9744;49.364;7.484;2022-12-01T02:50:37;6.00;99.90
19220;DHT22;9744;49.364;7.484;2022-12-01T02:53:12;6.10;99.90
19220;DHT22;9744;49.364;7.484;2022-12-01T02:55:46;6.10;99.90
19220;DHT22;9744;49.364;7.484;2022-12-01T02:58:13;6.00;99.90
19220;DHT22;9744;49.364;7.484;2022-12-01T03:00:54;6.00;99.90
19220;DHT22;9744;49.364;7.484;2022-12-01T03:03:38;5.90;99.90
19220;DHT22;9744;49.364;7.484;2022-12-01T03:06:11;5.90;99.90
19220;DHT22;9744;49.364;7.484;2022-12-01T03:08:49;6.00;99.90
19220;DHT22;9744;49.364;7.484;2022-12-01T03:11:23;6.00;99.90
19220;DHT22;9744;49.364;7.484;2022-12-01T03:19:52;6.00;99.90
19220;DHT22;9744;49.364;7.484;2022-12-01T04:49:25;5.50;99.90
19220;DHT22;9744;49.364;7.484;2022-12-01T04:51:52;5.40;99.90
19220;DHT22;9744;49.364;7.484;2022-12-01T04:57:25;5.30;99.90
19220;DHT22;9744;49.364;7.484;2022-12-01T05:08:55;5.20;99.90
19220;DHT22;9744;49.364;7.484;2022-12-01T05:11:23;5.20;99.90
19220;DHT22;9744;49.364;7.484;2022-12-01T05:13:51;5.30;99.90
19220;DHT22;9744;49.364;7.484;2022-12-01T05:16:19;5.20;99.90
19220;DHT22;9744;49.364;7.484;2022-12-01T05:18:47;5.20;99.90
19220;DHT22;9744;49.364;7.484;2022-12-01T05:21:15;5.10;99.90
19220;DHT22;9744;49.364;7.484;2022-12-01T05:23:42;5.00;99.90
19220;DHT22;9744;49.364;7.484;2022-12-01T05:26:11;5.10;99.90
19220;DHT22;9744;49.364;7.484;2022-12-01T05:28:39;5.10;99.90
19220;DHT22;9744;49.364;7.484;2022-12-01T05:31:06;5.00;99.90
19220;DHT22;9744;49.364;7.484;2022-12-01T05:33:33;5.10;99.90
19220;DHT22;9744;49.364;7.484;2022-12-01T05:36:01;5.10;99.90
19220;DHT22;9744;49.364;7.484;2022-12-01T05:38:28;5.00;99.90
19220;DHT22;9744;49.364;7.484;2022-12-01T05:40:55;4.90;99.90
19220;DHT22;9744;49.364;7.484;2022-12-01T05:43:24;4.90;99.90
19220;DHT22;9744;49.364;7.484;2022-12-01T05:45:51;5.00;99.90
19220;DHT22;9744;49.364;7.484;2022-12-01T05:53:58;4.90;99.90
19220;DHT22;9744;49.364;7.484;2022-12-01T05:56:26;4.90;99.90
19220;DHT22;9744;49.364;7.484;2022-12-01T06:01:43;5.10;99.90
19220;DHT22;9744;49.364;7.484;2022-12-01T06:07:06;4.90;99.90
19220;DHT22;9744;49.364;7.484;2022-12-01T06:09:33;4.90;99.90
19220;DHT22;9744;49.364;7.484;2022-12-01T06:29:15;4.80;99.90
19220;DHT22;9744;49.364;7.484;2022-12-01T06:31:42;4.70;99.90
19220;DHT22;9744;49.364;7.484;2022-12-01T06:40:11;4.80;99.90
19220;DHT22;9744;49.364;7.484;2022-12-01T06:45:29;4.70;99.90
19220;DHT22;9744;49.364;7.484;2022-12-01T06:47:56;4.60;99.90
19220;DHT22;9744;49.364;7.484;2022-12-01T06:50:24;4.80;99.90
19220;DHT22;9744;49.364;7.484;2022-12-01T06:52:51;4.90;99.90
19220;DHT22;9744;49.364;7.484;2022-12-01T06:55:19;4.70;99.90
19220;DHT22;9744;49.364;7.484;2022-12-01T07:06:39;4.90;99.90
19220;DHT22;9744;49.364;7.484;2022-12-01T07:09:06;5.00;99.90
19220;DHT22;9744;49.364;7.484;2022-12-01T07:11:33;5.00;99.90
19220;DHT22;9744;49.364;7.484;2022-12-01T07:14:02;5.00;99.90
19220;DHT22;9744;49.364;7.484;2022-12-01T07:16:29;5.00;99.90
19220;DHT22;9744;49.364;7.484;2022-12-01T07:18:57;5.10;99.90
19220;DHT22;9744;49.364;7.484;2022-12-01T07:21:24;5.00;99.90
19220;DHT22;9744;49.364;7.484;2022-12-01T07:23:53;5.10;99.90
19220;DHT22;9744;49.364;7.484;2022-12-01T07:26:20;4.90;99.90
19220;DHT22;9744;49.364;7.484;2022-12-01T07:28:47;4.90;99.90
19220;DHT22;9744;49.364;7.484;2022-12-01T07:31:19;4.80;99.90
19220;DHT22;9744;49.364;7.484;2022-12-01T07:33:46;4.80;99.90
19220;DHT22;9744;49.364;7.484;2022-12-01T08:05:37;4.80;99.90
19220;DHT22;9744;49.364;7.484;2022-12-01T08:16:29;5.00;99.90
19220;DHT22;9744;49.364;7.484;2022-12-01T08:18:56;5.00;99.90
19220;DHT22;9744;49.364;7.484;2022-12-01T08:21:25;5.00;99.90
19220;DHT22;9744;49.364;7.484;2022-12-01T08:23:53;5.00;99.90
19220;DHT22;9744;49.364;7.484;2022-12-01T08:31:58;4.70;99.90
19220;DHT22;9744;49.364;7.484;2022-12-01T08:34:25;4.80;99.90
19220;DHT22;9744;49.364;7.484;2022-12-01T08:36:54;4.90;99.90
19220;DHT22;9744;49.364;7.484;2022-12-01T08:39:21;4.90;99.90
19220;DHT22;9744;49.364;7.484;2022-12-01T08:41:48;5.00;99.90
19220;DHT22;9744;49.364;7.484;2022-12-01T08:44:15;5.30;99.90
19220;DHT22;9744;49.364;7.484;2022-12-01T08:55:17;4.80;99.90
19220;DHT22;9744;49.364;7.484;2022-12-01T08:57:45;4.70;99.90
19220;DHT22;9744;49.364;7.484;2022-12-01T09:00:13;4.70;99.90
19220;DHT22;9744;49.364;7.484;2022-12-01T09:02:40;4.80;99.90
19220;DHT22;9744;49.364;7.484;2022-12-01T09:05:08;4.80;99.90
19220;DHT22;9744;49.364;7.484;2022-12-01T09:07:35;4.80;99.90
19220;DHT22;9744;49.364;7.484;2022-12-01T09:12:52;4.70;99.90
19220;DHT22;9744;49.364;7.484;2022-12-01T09:15:19;4.80;99.90
19220;DHT22;9744;49.364;7.484;2022-12-01T09:17:46;4.70;99.90
19220;DHT22;9744;49.364;7.484;2022-12-01T09:20:14;4.90;99.90
19220;DHT22;9744;49.364;7.484;2022-12-01T09:30:28;4.70;99.90
19220;DHT22;9744;49.364;7.484;2022-12-01T09:44:34;4.70;99.90
19220;DHT22;9744;49.364;7.484;2022-12-01T09:47:08;4.70;99.90
19220;DHT22;9744;49.364;7.484;2022-12-01T09:49:45;4.70;99.90
19220;DHT22;9744;49.364;7.484;2022-12-01T09:52:16;4.50;99.90
19220;DHT22;9744;49.364;7.484;2022-12-01T09:54:45;4.50;99.90
19220;DHT22;9744;49.364;7.484;2022-12-01T09:57:17;4.40;99.90
19220;DHT22;9744;49.364;7.484;2022-12-01T09:59:50;4.40;99.90
19220;DHT22;9744;49.364;7.484;2022-12-01T10:02:28;4.40;99.90
19220;DHT22;9744;49.364;7.484;2022-12-01T10:04:59;4.40;99.90
19220;DHT22;9744;49.364;7.484;2022-12-01T10:07:30;4.40;99.90
19220;DHT22;9744;49.364;7.484;2022-12-01T10:10:00;4.40;99.90
19220;DHT22;9744;49.364;7.484;2022-12-01T10:12:30;4.30;99.90
19220;DHT22;9744;49.364;7.484;2022-12-01T10:15:12;4.60;99.90
19220;DHT22;9744;49.364;7.484;2022-12-01T10:17:49;4.40;99.90
19220;DHT22;9744;49.364;7.484;2022-12-01T10:20:22;5.10;99.90
19220;DHT22;9744;49.364;7.484;2022-12-01T10:23:16;4.20;99.90
19220;DHT22;9744;49.364;7.484;2022-12-01T10:25:53;3.70;99.90
19220;DHT22;9744;49.364;7.484;2022-12-01T10:28:47;5.00;99.90
19220;DHT22;9744;49.364;7.484;2022-12-01T10:31:20;4.20;99.90
19220;DHT22;9744;49.364;7.484;2022-12-01T10:33:57;4.20;99.90
19220;DHT22;9744;49.364;7.484;2022-12-01T10:36:25;4.30;99.90
19220;DHT22;9744;49.364;7.484;2022-12-01T10:38:54;5.00;99.90
19220;DHT22;9744;49.364;7.484;2022-12-01T10:41:23;4.10;99.90
19220;DHT22;9744;49.364;7.484;2022-12-01T10:43:54;4.90;99.90
19220;DHT22;9744;49.364;7.484;2022-12-01T10:46:27;4.20;99.90
19220;DHT22;9744;49.364;7.484;2022-12-01T10:48:58;4.10;99.90
19220;DHT22;9744;49.364;7.484;2022-12-01T10:54:35;4.20;99.90
19220;DHT22;9744;49.364;7.484;2022-12-01T10:57:04;4.20;99.90
19220;DHT22;9744;49.364;7.484;2022-12-01T10:59:35;4.50;99.90
19220;DHT22;9744;49.364;7.484;2022-12-01T11:02:05;4.30;99.90
19220;DHT22;9744;49.364;7.484;2022-12-01T11:04:42;4.50;99.90
19220;DHT22;9744;49.364;7.484;2022-12-01T11:07:16;4.30;99.90
19220;DHT22;9744;49.364;7.484;2022-12-01T11:09:45;4.10;99.90
19220;DHT22;9744;49.364;7.484;2022-12-01T11:12:16;4.10;99.90
19220;DHT22;9744;49.364;7.484;2022-12-01T11:17:37;4.80;99.90
19220;DHT22;9744;49.364;7.484;2022-12-01T11:20:26;4.20;99.90
19220;DHT22;9744;49.364;7.484;2022-12-01T11:23:20;4.20;99.90
19220;DHT22;9744;49.364;7.484;2022-12-01T11:28:52;4.10;99.90
19220;DHT22;9744;49.364;7.484;2022-12-01T11:31:22;4.20;99.90
19220;DHT22;9744;49.364;7.484;2022-12-01T11:34:00;4.10;99.90
19220;DHT22;9744;49.364;7.484;2022-12-01T11:36:36;4.20;99.90
19220;DHT22;9744;49.364;7.484;2022-12-01T11:39:04;4.20;99.90
19220;DHT22;9744;49.364;7.484;2022-12-01T11:41:35;4.30;99.90
19220;DHT22;9744;49.364;7.484;2022-12-01T11:44:13;4.30;99.90
19220;DHT22;9744;49.364;7.484;2022-12-01T11:46:42;4.10;99.90
19220;DHT22;9744;49.364;7.484;2022-12-01T11:49:15;4.10;99.90
19220;DHT22;9744;49.364;7.484;2022-12-01T11:51:45;4.20;99.90
19220;DHT22;9744;49.364;7.484;2022-12-01T11:54:14;4.30;99.90
19220;DHT22;9744;49.364;7.484;2022-12-01T11:56:43;4.20;99.90
19220;DHT22;9744;49.364;7.484;2022-12-01T11:59:13;4.10;99.90
19220;DHT22;9744;49.364;7.484;2022-12-01T12:02:00;4.10;99.90
19220;DHT22;9744;49.364;7.484;2022-12-01T12:04:42;4.00;99.90
19220;DHT22;9744;49.364;7.484;2022-12-01T12:07:19;4.20;99.90
19220;DHT22;9744;49.364;7.484;2022-12-01T12:10:00;4.20;99.90
19220;DHT22;9744;49.364;7.484;2022-12-01T12:12:39;4.20;99.90
19220;DHT22;9744;49.364;7.484;2022-12-01T12:15:19;4.20;99.90
19220;DHT22;9744;49.364;7.484;2022-12-01T12:18:04;4.20;99.90
19220;DHT22;9744;49.364;7.484;2022-12-01T12:20:41;4.30;99.90
19220;DHT22;9744;49.364;7.484;2022-12-01T12:23:26;4.40;99.90
19220;DHT22;9744;49.364;7.484;2022-12-01T12:26:03;4.40;99.90
19220;DHT22;9744;49.364;7.484;2022-12-01T12:28:41;4.50;99.90
19220;DHT22;9744;49.364;7.484;2022-12-01T12:31:20;4.60;99.90
19220;DHT22;9744;49.364;7.484;2022-12-01T12:34:12;4.60;99.90
19220;DHT22;9744;49.364;7.484;2022-12-01T12:36:48;4.60;99.90
19220;DHT22;9744;49.364;7.484;2022-12-01T12:39:34;4.60;99.90
19220;DHT22;9744;49.364;7.484;2022-12-01T12:42:11;4.50;99.90
19220;DHT22;9744;49.364;7.484;2022-12-01T12:44:47;4.50;99.90
19220;DHT22;9744;49.364;7.484;2022-12-01T12:47:36;4.60;99.90
19220;DHT22;9744;49.364;7.484;2022-12-01T12:50:21;4.60;99.90
19220;DHT22;9744;49.364;7.484;2022-12-01T12:52:52;4.60;99.90
19220;DHT22;9744;49.364;7.484;2022-12-01T12:55:25;4.60;99.90
19220;DHT22;9744;49.364;7.484;2022-12-01T12:57:56;4.50;99.90
19220;DHT22;9744;49.364;7.484;2022-12-01T13:00:26;4.70;99.90
19220;DHT22;9744;49.364;7.484;2022-12-01T13:02:56;5.20;99.90
19220;DHT22;9744;49.364;7.484;2022-12-01T13:05:28;4.70;99.90
19220;DHT22;9744;49.364;7.484;2022-12-01T13:08:00;4.70;99.90
19220;DHT22;9744;49.364;7.484;2022-12-01T13:10:34;4.60;99.90
19220;DHT22;9744;49.364;7.484;2022-12-01T13:13:12;4.60;99.90
19220;DHT22;9744;49.364;7.484;2022-12-01T13:15:44;4.60;99.90
19220;DHT22;9744;49.364;7.484;2022-12-01T13:18:24;4.60;99.90
19220;DHT22;9744;49.364;7.484;2022-12-01T13:20:53;4.70;99.90
19220;DHT22;9744;49.364;7.484;2022-12-01T13:23:23;4.70;99.90
19220;DHT22;9744;49.364;7.484;2022-12-01T13:25:55;4.50;99.90
19220;DHT22;9744;49.364;7.484;2022-12-01T13:28:25;4.60;99.90
19220;DHT22;9744;49.364;7.484;2022-12-01T13:30:58;4.60;99.90
19220;DHT22;9744;49.364;7.484;2022-12-01T13:33:26;4.60;99.90
19220;DHT22;9744;49.364;7.484;2022-12-01T13:35:55;4.60;99.90
19220;DHT22;9744;49.364;7.484;2022-12-01T13:38:26;4.60;99.90
19220;DHT22;9744;49.364;7.484;2022-12-01T13:41:25;4.60;99.90
19220;DHT22;9744;49.364;7.484;2022-12-01T13:44:01;4.70;99.90
19220;DHT22;9744;49.364;7.484;2022-12-01T13:46:31;4.60;99.90
19220;DHT22;9744;49.364;7.484;2022-12-01T13:48:59;4.70;99.90
19220;DHT22;9744;49.364;7.484;2022-12-01T13:54:36;4.80;99.90
19220;DHT22;9744;49.364;7.484;2022-12-01T13:57:26;4.90;99.90
19220;DHT22;9744;49.364;7.484;2022-12-01T14:00:22;4.70;99.90
19220;DHT22;9744;49.364;7.484;2022-12-01T14:05:55;4.60;99.90
19220;DHT22;9744;49.364;7.484;2022-12-01T14:08:33;4.80;99.90
19220;DHT22;9744;49.364;7.484;2022-12-01T14:11:05;4.90;99.90
19220;DHT22;9744;49.364;7.484;2022-12-01T14:13:44;4.90;99.90
19220;DHT22;9744;49.364;7.484;2022-12-01T14:16:12;4.90;99.90
19220;DHT22;9744;49.364;7.484;2022-12-01T14:18:42;4.80;99.90
19220;DHT22;9744;49.364;7.484;2022-12-01T14:21:14;4.80;99.90
19220;DHT22;9744;49.364;7.484;2022-12-01T14:23:58;4.60;99.90
19220;DHT22;9744;49.364;7.484;2022-12-01T14:26:26;4.60;99.90
19220;DHT22;9744;49.364;7.484;2022-12-01T14:29:32;4.60;99.90
19220;DHT22;9744;49.364;7.484;2022-12-01T14:32:23;4.60;99.90
19220;DHT22;9744;49.364;7.484;2022-12-01T14:35:07;4.50;99.90
19220;DHT22;9744;49.364;7.484;2022-12-01T14:37:48;4.50;99.90
19220;DHT22;9744;49.364;7.484;2022-12-01T14:40:24;4.50;99.90
19220;DHT22;9744;49.364;7.484;2022-12-01T14:42:55;4.30;99.90
19220;DHT22;9744;49.364;7.484;2022-12-01T14:45:52;4.20;99.90
19220;DHT22;9744;49.364;7.484;2022-12-01T14:48:25;4.30;99.90
19220;DHT22;9744;49.364;7.484;2022-12-01T14:51:10;4.30;99.90
19220;DHT22;9744;49.364;7.484;2022-12-01T14:53:40;4.30;99.90
19220;DHT22;9744;49.364;7.484;2022-12-01T14:56:12;4.30;99.90
19220;DHT22;9744;49.364;7.484;2022-12-01T14:58:50;4.40;99.90
19220;DHT22;9744;49.364;7.484;2022-12-01T15:01:20;4.50;99.90
19220;DHT22;9744;49.364;7.484;2022-12-01T15:03:48;4.40;99.90
19220;DHT22;9744;49.364;7.484;2022-12-01T15:06:18;4.60;99.90
19220;DHT22;9744;49.364;7.484;2022-12-01T15:09:06;4.60;99.90
19220;DHT22;9744;49.364;7.484;2022-12-01T15:11:35;4.60;99.90
19220;DHT22;9744;49.364;7.484;2022-12-01T15:14:20;4.50;99.90
19220;DHT22;9744;49.364;7.484;2022-12-01T15:16:49;4.40;99.90
19220;DHT22;9744;49.364;7.484;2022-12-01T15:19:32;4.40;99.90
19220;DHT22;9744;49.364;7.484;2022-12-01T15:22:04;4.40;99.90
19220;DHT22;9744;49.364;7.484;2022-12-01T15:24:32;4.40;99.90
19220;DHT22;9744;49.364;7.484;2022-12-01T15:26:59;4.40;99.90
19220;DHT22;9744;49.364;7.484;2022-12-01T15:29:28;4.50;99.90
19220;DHT22;9744;49.364;7.484;2022-12-01T15:31:59;4.40;99.90
19220;DHT22;9744;49.364;7.484;2022-12-01T15:34:30;4.50;99.90
19220;DHT22;9744;49.364;7.484;2022-12-01T15:36:59;4.50;99.90
19220;DHT22;9744;49.364;7.484;2022-12-01T15:39:32;4.40;99.90
19220;DHT22;9744;49.364;7.484;2022-12-01T15:42:00;4.50;99.90
19220;DHT22;9744;49.364;7.484;2022-12-01T15:44:30;4.50;99.90
19220;DHT22;9744;49.364;7.484;2022-12-01T15:47:28;4.50;99.90
19220;DHT22;9744;49.364;7.484;2022-12-01T15:49:55;4.50;99.90
19220;DHT22;9744;49.364;7.484;2022-12-01T15:52:23;4.50;99.90
19220;DHT22;9744;49.364;7.484;2022-12-01T15:54:50;4.60;99.90
19220;DHT22;9744;49.364;7.484;2022-12-01T15:57:18;4.60;99.90
19220;DHT22;9744;49.364;7.484;2022-12-01T15:59:52;4.70;99.90
19220;DHT22;9744;49.364;7.484;2022-12-01T16:02:26;4.60;99.90
19220;DHT22;9744;49.364;7.484;2022-12-01T16:05:13;4.70;99.90
19220;DHT22;9744;49.364;7.484;2022-12-01T16:07:41;4.70;99.90
19220;DHT22;9744;49.364;7.484;2022-12-01T16:10:25;4.80;99.90
19220;DHT22;9744;49.364;7.484;2022-12-01T16:15:59;4.70;99.90
19220;DHT22;9744;49.364;7.484;2022-12-01T16:18:30;4.70;99.90
19220;DHT22;9744;49.364;7.484;2022-12-01T16:21:01;4.80;99.90
19220;DHT22;9744;49.364;7.484;2022-12-01T16:23:29;4.80;99.90
19220;DHT22;9744;49.364;7.484;2022-12-01T16:25:56;4.80;99.90
19220;DHT22;9744;49.364;7.484;2022-12-01T16:28:29;4.80;99.90
19220;DHT22;9744;49.364;7.484;2022-12-01T16:30:57;4.80;99.90
19220;DHT22;9744;49.364;7.484;2022-12-01T16:33:26;4.90;99.90
19220;DHT22;9744;49.364;7.484;2022-12-01T16:35:58;4.80;99.90
19220;DHT22;9744;49.364;7.484;2022-12-01T16:38:28;4.80;99.90
19220;DHT22;9744;49.364;7.484;2022-12-01T16:40:57;4.80;99.90
19220;DHT22;9744;49.364;7.484;2022-12-01T16:43:26;4.90;99.90
19220;DHT22;9744;49.364;7.484;2022-12-01T16:45:58;4.90;99.90
19220;DHT22;9744;49.364;7.484;2022-12-01T16:48:25;4.90;99.90
19220;DHT22;9744;49.364;7.484;2022-12-01T16:50:53;4.90;99.90
19220;DHT22;9744;49.364;7.484;2022-12-01T16:53:22;4.90;99.90
19220;DHT22;9744;49.364;7.484;2022-12-01T16:55:52;4.80;99.90
19220;DHT22;9744;49.364;7.484;2022-12-01T16:58:20;4.70;99.90
19220;DHT22;9744;49.364;7.484;2022-12-01T17:00:47;4.70;99.90
19220;DHT22;9744;49.364;7.484;2022-12-01T17:03:19;4.70;99.90
19220;DHT22;9744;49.364;7.484;2022-12-01T17:05:46;4.70;99.90
19220;DHT22;9744;49.364;7.484;2022-12-01T17:08:14;4.80;99.90
19220;DHT22;9744;49.364;7.484;2022-12-01T17:10:44;4.60;99.90
19220;DHT22;9744;49.364;7.484;2022-12-01T17:13:12;4.40;99.90
19220;DHT22;9744;49.364;7.484;2022-12-01T17:15:40;4.30;99.90
19220;DHT22;9744;49.364;7.484;2022-12-01T17:18:07;4.30;99.90
19220;DHT22;9744;49.364;7.484;2022-12-01T17:20:35;4.20;99.90
19220;DHT22;9744;49.364;7.484;2022-12-01T17:23:02;4.30;99.90
19220;DHT22;9744;49.364;7.484;2022-12-01T17:25:29;4.30;99.90
19220;DHT22;9744;49.364;7.484;2022-12-01T17:27:58;4.30;99.90
19220;DHT22;9744;49.364;7.484;2022-12-01T17:30:26;4.40;99.90
19220;DHT22;9744;49.364;7.484;2022-12-01T17:32:53;4.30;99.90
19220;DHT22;9744;49.364;7.484;2022-12-01T17:35:20;4.30;99.90
19220;DHT22;9744;49.364;7.484;2022-12-01T17:37:47;4.30;99.90
19220;DHT22;9744;49.364;7.484;2022-12-01T17:40:14;4.40;99.90
19220;DHT22;9744;49.364;7.484;2022-12-01T17:42:42;4.40;99.90
19220;DHT22;9744;49.364;7.484;2022-12-01T17:45:17;4.30;99.90
19220;DHT22;9744;49.364;7.484;2022-12-01T17:47:45;4.20;99.90
19220;DHT22;9744;49.364;7.484;2022-12-01T17:50:12;4.20;99.90
19220;DHT22;9744;49.364;7.484;2022-12-01T17:52:39;4.20;99.90
19220;DHT22;9744;49.364;7.484;2022-12-01T17:55:07;4.20;99.90
19220;DHT22;9744;49.364;7.484;2022-12-01T17:57:34;4.20;99.90
19220;DHT22;9744;49.364;7.484;2022-12-01T18:00:03;4.20;99.90
19220;DHT22;9744;49.364;7.484;2022-12-01T18:02:35;4.20;99.90
19220;DHT22;9744;49.364;7.484;2022-12-01T18:05:03;4.10;99.90
19220;DHT22;9744;49.364;7.484;2022-12-01T18:07:30;4.10;99.90
19220;DHT22;9744;49.364;7.484;2022-12-01T18:09:57;4.10;99.90
19220;DHT22;9744;49.364;7.484;2022-12-01T18:12:25;4.10;99.90
19220;DHT22;9744;49.364;7.484;2022-12-01T18:14:52;4.10;99.90
19220;DHT22;9744;49.364;7.484;2022-12-01T18:17:19;4.00;99.90
19220;DHT22;9744;49.364;7.484;2022-12-01T18:19:47;4.00;99.90
19220;DHT22;9744;49.364;7.484;2022-12-01T18:22:14;4.00;99.90
19220;DHT22;9744;49.364;7.484;2022-12-01T18:24:42;4.10;99.90
19220;DHT22;9744;49.364;7.484;2022-12-01T18:27:10;4.10;99.90
19220;DHT22;9744;49.364;7.484;2022-12-01T18:29:37;4.00;99.90
19220;DHT22;9744;49.364;7.484;2022-12-01T18:32:04;4.10;99.90
19220;DHT22;9744;49.364;7.484;2022-12-01T18:34:32;4.10;99.90
19220;DHT22;9744;49.364;7.484;2022-12-01T18:37:01;4.10;99.90
19220;DHT22;9744;49.364;7.484;2022-12-01T18:39:30;4.10;99.90
19220;DHT22;9744;49.364;7.484;2022-12-01T18:41:59;4.10;99.90
19220;DHT22;9744;49.364;7.484;2022-12-01T18:44:27;4.10;99.90
19220;DHT22;9744;49.364;7.484;2022-12-01T18:46:55;4.10;99.90
19220;DHT22;9744;49.364;7.484;2022-12-01T18:49:23;4.00;99.90
19220;DHT22;9744;49.364;7.484;2022-12-01T18:51:50;3.90;99.90
19220;DHT22;9744;49.364;7.484;2022-12-01T18:54:19;4.00;99.90
19220;DHT22;9744;49.364;7.484;2022-12-01T18:56:50;4.00;99.90
19220;DHT22;9744;49.364;7.484;2022-12-01T18:59:17;3.90;99.90
19220;DHT22;9744;49.364;7.484;2022-12-01T19:01:45;4.00;99.90
19220;DHT22;9744;49.364;7.484;2022-12-01T19:04:15;4.00;99.90
19220;DHT22;9744;49.364;7.484;2022-12-01T19:06:43;3.90;99.90
19220;DHT22;9744;49.364;7.484;2022-12-01T19:09:12;3.90;99.90
19220;DHT22;9744;49.364;7.484;2022-12-01T19:11:41;3.90;99.90
19220;DHT22;9744;49.364;7.484;2022-12-01T19:14:12;3.80;99.90
19220;DHT22;9744;49.364;7.484;2022-12-01T19:16:40;3.90;99.90
19220;DHT22;9744;49.364;7.484;2022-12-01T19:19:08;3.80;99.90
19220;DHT22;9744;49.364;7.484;2022-12-01T19:21:35;3.80;99.90
19220;DHT22;9744;49.364;7.484;2022-12-01T19:24:03;3.80;99.90
19220;DHT22;9744;49.364;7.484;2022-12-01T19:26:30;3.80;99.90
19220;DHT22;9744;49.364;7.484;2022-12-01T19:28:59;3.80;99.90
19220;DHT22;9744;49.364;7.484;2022-12-01T19:31:27;3.70;99.90
19220;DHT22;9744;49.364;7.484;2022-12-01T19:33:54;3.80;99.90
19220;DHT22;9744;49.364;7.484;2022-12-01T19:36:26;3.80;99.90
19220;DHT22;9744;49.364;7.484;2022-12-01T19:38:55;3.90;99.90
19220;DHT22;9744;49.364;7.484;2022-12-01T19:41:23;3.90;99.90
19220;DHT22;9744;49.364;7.484;2022-12-01T19:43:51;3.80;99.90
19220;DHT22;9744;49.364;7.484;2022-12-01T19:46:22;3.80;99.90
19220;DHT22;9744;49.364;7.484;2022-12-01T19:48:53;3.90;99.90
19220;DHT22;9744;49.364;7.484;2022-12-01T19:51:22;3.90;99.90
19220;DHT22;9744;49.364;7.484;2022-12-01T19:53:50;3.90;99.90
19220;DHT22;9744;49.364;7.484;2022-12-01T19:56:17;3.90;99.90
19220;DHT22;9744;49.364;7.484;2022-12-01T19:58:44;4.00;99.90
19220;DHT22;9744;49.364;7.484;2022-12-01T20:01:13;4.00;99.90
19220;DHT22;9744;49.364;7.484;2022-12-01T20:03:44;3.90;99.90
19220;DHT22;9744;49.364;7.484;2022-12-01T20:06:12;4.00;99.90
19220;DHT22;9744;49.364;7.484;2022-12-01T20:08:40;4.10;99.90
19220;DHT22;9744;49.364;7.484;2022-12-01T20:11:08;4.00;99.90
19220;DHT22;9744;49.364;7.484;2022-12-01T20:13:38;3.90;99.90
19220;DHT22;9744;49.364;7.484;2022-12-01T20:16:07;3.90;99.90
19220;DHT22;9744;49.364;7.484;2022-12-01T20:18:35;3.90;99.90
19220;DHT22;9744;49.364;7.484;2022-12-01T20:21:05;3.90;99.90
19220;DHT22;9744;49.364;7.484;2022-12-01T20:23:33;3.90;99.90
19220;DHT22;9744;49.364;7.484;2022-12-01T20:26:01;3.90;99.90
19220;DHT22;9744;49.364;7.484;2022-12-01T20:28:29;3.80;99.90
19220;DHT22;9744;49.364;7.484;2022-12-01T20:30:57;3.80;99.90
19220;DHT22;9744;49.364;7.484;2022-12-01T20:33:25;3.80;99.90
19220;DHT22;9744;49.364;7.484;2022-12-01T20:35:52;3.70;99.90
19220;DHT22;9744;49.364;7.484;2022-12-01T20:38:21;3.80;99.90